createdAt,value
2022-08-05T00:02:23.588Z,27.14
2022-08-05T00:04:52.882Z,27.06
2022-08-05T00:07:59.111Z,27.20
2022-08-05T00:10:11.649Z,27.28
2022-08-05T00:12:56.529Z,27.32
2022-08-05T00:15:55.757Z,27.29
2022-08-05T00:18:21.431Z,27.16
2022-08-05T00:20:49.842Z,27.09
2022-08-05T00:23:17.572Z,27.14
2022-08-05T00:26:05.895Z,27.00
2022-08-05T00:28:33.629Z,27.02
2022-08-05T00:31:02.744Z,27.04
2022-08-05T00:34:57.050Z,26.99
2022-08-05T00:37:12.709Z,27.02
2022-08-05T00:39:26.500Z,27.15
2022-08-05T00:42:05.295Z,27.25
2022-08-05T00:44:32.964Z,27.11
2022-08-05T00:47:03.908Z,27.20
2022-08-05T00:49:51.045Z,27.08
2022-08-05T00:52:28.264Z,27.15
2022-08-05T00:54:56.808Z,27.19
2022-08-05T00:57:25.420Z,27.20
2022-08-05T00:59:59.635Z,27.26
2022-08-05T01:02:27.277Z,27.29
2022-08-05T01:04:56.385Z,27.24
2022-08-05T01:07:31.881Z,27.29
2022-08-05T01:09:59.861Z,27.18
2022-08-05T01:12:29.672Z,27.13
2022-08-05T01:15:03.908Z,27.09
2022-08-05T01:17:39.973Z,27.08
2022-08-05T01:20:22.413Z,26.84
2022-08-05T01:23:14.370Z,26.81
2022-08-05T01:26:00.625Z,26.84
2022-08-05T01:28:39.673Z,26.68
2022-08-05T01:31:11.800Z,26.58
2022-08-05T01:33:48.893Z,26.67
2022-08-05T01:36:21.053Z,26.56
2022-08-05T01:38:57.011Z,26.45
2022-08-05T01:41:32.279Z,26.55
2022-08-05T01:44:02.923Z,26.48
2022-08-05T01:46:41.425Z,26.45
2022-08-05T01:49:23.157Z,26.68
2022-08-05T01:51:58.302Z,26.71
2022-08-05T01:54:30.500Z,26.45
2022-08-05T01:58:12.975Z,26.55
2022-08-05T01:59:50.347Z,26.62
2022-08-05T02:02:25.969Z,26.55
2022-08-05T02:04:59.584Z,26.33
2022-08-05T02:07:30.241Z,26.19
2022-08-05T02:09:59.205Z,26.16
2022-08-05T02:12:35.352Z,25.97
2022-08-05T02:15:12.350Z,25.84
2022-08-05T02:18:31.993Z,25.73
2022-08-05T02:20:41.098Z,25.61
2022-08-05T02:23:12.787Z,25.46
2022-08-05T02:25:49.321Z,25.57
2022-08-05T02:28:28.479Z,25.52
2022-08-05T02:31:01.783Z,25.42
2022-08-05T02:33:36.083Z,25.64
2022-08-05T02:36:09.361Z,25.49
2022-08-05T02:38:38.705Z,25.07
2022-08-05T02:41:16.956Z,25.17
2022-08-05T02:44:06.627Z,25.47
2022-08-05T02:46:53.558Z,25.36
2022-08-05T02:49:27.069Z,24.72
2022-08-05T02:52:04.932Z,24.12
2022-08-05T02:54:36.966Z,24.01
2022-08-05T02:57:10.209Z,23.84
2022-08-05T02:59:56.473Z,23.78
2022-08-05T03:02:30.590Z,23.82
2022-08-05T03:05:00.771Z,24.25
2022-08-05T03:07:59.194Z,24.37
2022-08-05T03:10:22.119Z,23.85
2022-08-05T03:12:53.494Z,23.50
2022-08-05T03:15:23.754Z,23.46
2022-08-05T03:17:55.949Z,23.42
2022-08-05T03:20:25.386Z,23.43
2022-08-05T03:22:57.160Z,23.34
2022-08-05T03:25:32.956Z,23.27
2022-08-05T03:28:18.525Z,23.12
2022-08-05T03:30:48.347Z,23.00
2022-08-05T03:33:18.225Z,23.01
2022-08-05T03:35:47.381Z,23.14
2022-08-05T03:38:15.823Z,23.11
2022-08-05T03:40:44.925Z,23.06
2022-08-05T03:43:58.474Z,23.02
2022-08-05T03:46:01.424Z,23.00
2022-08-05T03:48:35.457Z,22.95
2022-08-05T03:52:49.352Z,22.96
2022-08-05T03:56:50.116Z,22.93
2022-08-05T03:59:20.887Z,22.96
2022-08-05T04:01:52.145Z,22.97
2022-08-05T04:04:22.583Z,22.92
2022-08-05T04:06:54.767Z,23.00
2022-08-05T04:09:26.137Z,22.96
2022-08-05T04:11:56.727Z,22.81
2022-08-05T04:14:30.601Z,22.98
2022-08-05T04:17:00.008Z,23.19
2022-08-05T04:19:30.573Z,23.23
2022-08-05T04:22:09.508Z,23.21
2022-08-05T04:24:44.025Z,23.17
2022-08-05T04:27:13.300Z,23.34
2022-08-05T04:29:41.434Z,23.18
2022-08-05T04:32:09.430Z,23.52
2022-08-05T04:34:43.097Z,23.34
2022-08-05T04:37:11.586Z,23.17
2022-08-05T04:39:40.649Z,23.16
2022-08-05T04:42:09.243Z,23.02
2022-08-05T04:44:37.025Z,23.06
2022-08-05T04:47:09.420Z,23.20
2022-08-05T04:50:02.468Z,23.17
2022-08-05T04:52:28.053Z,23.01
2022-08-05T04:54:57.601Z,22.98
2022-08-05T04:57:28.788Z,23.11
2022-08-05T04:59:57.211Z,23.27
2022-08-05T05:02:36.433Z,23.32
2022-08-05T05:05:16.751Z,23.57
2022-08-05T05:07:56.053Z,23.68
2022-08-05T05:10:24.635Z,23.53
2022-08-05T05:12:57.165Z,23.55
2022-08-05T05:15:56.521Z,23.73
2022-08-05T05:18:14.829Z,23.57
2022-08-05T05:20:56.934Z,23.41
2022-08-05T05:23:26.224Z,23.58
2022-08-05T05:25:54.184Z,23.60
2022-08-05T05:28:22.116Z,23.78
2022-08-05T05:30:52.822Z,24.08
2022-08-05T05:33:23.452Z,24.50
2022-08-05T05:35:51.905Z,25.01
2022-08-05T05:38:22.366Z,25.46
2022-08-05T05:40:55.222Z,25.52
2022-08-05T05:43:56.513Z,25.74
2022-08-05T05:46:15.957Z,25.60
2022-08-05T05:48:45.994Z,26.21
2022-08-05T05:51:21.532Z,26.72
2022-08-05T05:53:57.843Z,27.28
2022-08-05T05:56:32.369Z,27.46
2022-08-05T05:59:03.150Z,27.01
2022-08-05T06:01:37.811Z,26.97
2022-08-05T06:04:07.379Z,26.83
2022-08-05T06:06:35.496Z,26.81
2022-08-05T06:09:05.464Z,27.15
2022-08-05T06:11:33.473Z,27.68
2022-08-05T06:14:02.202Z,27.87
2022-08-05T06:16:36.656Z,28.40
2022-08-05T06:19:07.190Z,28.68
2022-08-05T06:21:38.374Z,29.21
2022-08-05T06:24:12.101Z,29.57
2022-08-05T06:26:52.287Z,28.90
2022-08-05T06:29:25.063Z,28.20
2022-08-05T06:32:17.231Z,27.75
2022-08-05T06:34:56.355Z,27.37
2022-08-05T06:37:56.480Z,27.10
2022-08-05T06:40:18.143Z,26.72
2022-08-05T06:42:48.991Z,26.61
2022-08-05T06:53:32.467Z,27.09
2022-08-05T06:56:25.680Z,27.46
2022-08-05T06:58:53.850Z,27.49
2022-08-05T07:01:21.760Z,27.11
2022-08-05T07:03:50.729Z,26.40
2022-08-05T07:06:19.278Z,26.18
2022-08-05T07:08:51.816Z,25.98
2022-08-05T07:11:25.652Z,25.79
2022-08-05T07:14:28.876Z,25.34
2022-08-05T07:17:59.044Z,24.73
2022-08-05T07:22:36.981Z,24.44
2022-08-05T07:25:22.046Z,24.07
2022-08-05T07:28:02.264Z,23.90
2022-08-05T07:30:39.126Z,23.89
2022-08-05T07:33:10.363Z,23.68
2022-08-05T07:36:01.483Z,23.83
2022-08-05T07:38:33.357Z,23.76
2022-08-05T07:42:07.480Z,23.47
2022-08-05T07:43:56.924Z,23.32
2022-08-05T07:46:26.395Z,23.28
2022-08-05T07:49:01.711Z,23.36
2022-08-05T07:51:37.347Z,23.59
2022-08-05T07:54:08.454Z,23.73
2022-08-05T07:56:59.865Z,23.55
2022-08-05T07:59:38.928Z,23.73
2022-08-05T08:02:15.492Z,23.82
2022-08-05T08:04:45.605Z,23.75
2022-08-05T08:07:13.778Z,23.61
2022-08-05T08:09:41.631Z,23.59
2022-08-05T08:12:20.973Z,23.46
2022-08-05T08:15:02.260Z,23.43
2022-08-05T08:17:30.814Z,23.52
2022-08-05T08:20:22.026Z,23.40
2022-08-05T08:22:52.202Z,23.33
2022-08-05T08:25:26.839Z,23.27
2022-08-05T08:28:18.004Z,23.33
2022-08-05T08:30:50.272Z,23.56
2022-08-05T08:33:19.188Z,23.24
2022-08-05T08:35:52.338Z,22.80
2022-08-05T08:38:35.498Z,23.11
2022-08-05T08:41:07.127Z,23.26
2022-08-05T08:45:24.433Z,22.88
2022-08-05T08:46:28.500Z,23.09
2022-08-05T08:49:06.402Z,23.00
2022-08-05T08:52:03.069Z,23.09
2022-08-05T08:54:36.533Z,23.36
2022-08-05T08:57:11.450Z,23.43
2022-08-05T08:59:41.717Z,23.51
2022-08-05T09:02:18.891Z,23.51
2022-08-05T09:05:16.253Z,23.55
2022-08-05T09:07:39.975Z,23.65
2022-08-05T09:10:27.145Z,23.72
2022-08-05T09:12:56.899Z,23.94
2022-08-05T09:15:32.462Z,23.72
2022-08-05T09:18:09.194Z,23.79
2022-08-05T09:20:38.278Z,23.95
2022-08-05T09:23:18.862Z,24.43
2022-08-05T09:26:01.667Z,24.85
2022-08-05T09:28:34.323Z,25.27
2022-08-05T09:31:18.211Z,25.97
2022-08-05T09:33:56.635Z,26.73
2022-08-05T09:36:27.638Z,27.06
2022-08-05T09:39:18.367Z,26.62
2022-08-05T09:41:58.313Z,27.50
2022-08-05T09:44:37.334Z,27.77
2022-08-05T09:47:15.447Z,28.01
2022-08-05T09:50:01.375Z,27.73
2022-08-05T09:52:32.674Z,27.96
2022-08-05T09:55:55.079Z,28.30
2022-08-05T09:57:54.554Z,27.87
2022-08-05T10:00:26.812Z,27.25
2022-08-05T10:02:58.570Z,27.32
2022-08-05T10:05:32.768Z,27.61
2022-08-05T10:08:36.877Z,27.32
2022-08-05T10:10:54.595Z,27.53
2022-08-05T10:13:31.784Z,27.87
2022-08-05T10:16:32.238Z,28.02
2022-08-05T10:19:08.455Z,28.00
2022-08-05T10:21:40.853Z,27.80
2022-08-05T10:24:13.155Z,27.86
2022-08-05T10:26:51.328Z,27.36
2022-08-05T10:29:23.409Z,27.47
2022-08-05T10:32:54.802Z,27.86
2022-08-05T10:35:00.960Z,27.88
2022-08-05T10:37:40.484Z,27.24
2022-08-05T10:40:27.830Z,27.70
2022-08-05T10:43:02.251Z,27.89
2022-08-05T10:45:41.855Z,27.98
2022-08-05T10:48:58.063Z,28.20
2022-08-05T10:51:28.946Z,27.70
2022-08-05T10:54:01.631Z,27.71
2022-08-05T10:56:31.110Z,27.45
2022-08-05T10:59:12.721Z,28.03
2022-08-05T11:02:34.572Z,28.27
2022-08-05T11:04:56.670Z,28.94
2022-08-05T11:07:32.576Z,28.71
2022-08-05T11:10:04.131Z,28.81
2022-08-05T11:12:50.834Z,29.10
2022-08-05T11:15:58.875Z,29.12
2022-08-05T11:18:30.020Z,29.10
2022-08-05T11:21:00.066Z,29.25
2022-08-05T11:24:02.732Z,29.31
2022-08-05T11:26:28.996Z,29.23
2022-08-05T11:29:12.221Z,28.89
2022-08-05T11:31:58.457Z,29.00
2022-08-05T11:34:52.188Z,28.49
2022-08-05T11:38:26.237Z,28.84
2022-08-05T11:41:01.380Z,28.17
2022-08-05T11:44:05.173Z,28.32
2022-08-05T11:46:34.350Z,28.39
2022-08-05T11:49:04.249Z,28.70
2022-08-05T11:51:44.393Z,28.92
2022-08-05T11:54:33.653Z,28.66
2022-08-05T11:57:08.561Z,29.16
2022-08-05T11:59:55.504Z,29.55
2022-08-05T12:02:32.057Z,29.69
2022-08-05T12:05:01.542Z,29.78
2022-08-05T12:08:07.900Z,29.87
2022-08-05T12:10:43.431Z,29.63
2022-08-05T12:13:15.685Z,29.79
2022-08-05T12:15:50.042Z,29.57
2022-08-05T12:18:32.825Z,29.92
2022-08-05T12:21:11.236Z,30.29
2022-08-05T12:23:42.947Z,30.12
2022-08-05T12:26:11.243Z,29.48
2022-08-05T12:28:39.408Z,29.25
2022-08-05T12:31:09.567Z,29.10
2022-08-05T12:33:38.773Z,29.09
2022-08-05T12:36:08.521Z,29.74
2022-08-05T12:38:38.257Z,30.12
2022-08-05T12:41:13.492Z,30.18
2022-08-05T12:43:56.345Z,30.32
2022-08-05T12:46:29.343Z,30.86
2022-08-05T12:48:59.346Z,30.46
2022-08-05T12:52:13.551Z,30.71
2022-08-05T12:54:26.537Z,30.18
2022-08-05T12:56:56.224Z,30.88
2022-08-05T12:59:46.453Z,30.30
2022-08-05T13:02:19.810Z,30.63
2022-08-05T13:04:52.431Z,30.72
2022-08-05T13:07:56.183Z,31.02
2022-08-05T13:10:19.907Z,30.46
2022-08-05T13:12:57.533Z,30.67
2022-08-05T13:15:42.045Z,30.92
2022-08-05T13:18:20.638Z,30.84
2022-08-05T13:20:49.864Z,29.95
2022-08-05T13:23:22.790Z,30.12
2022-08-05T13:25:59.715Z,30.45
2022-08-05T13:28:29.027Z,30.66
2022-08-05T13:30:57.104Z,30.11
2022-08-05T13:34:23.364Z,30.55
2022-08-05T13:36:14.634Z,30.51
2022-08-05T13:38:43.251Z,30.11
2022-08-05T13:41:11.981Z,30.23
2022-08-05T13:43:45.550Z,29.58
2022-08-05T13:46:50.557Z,30.16
2022-08-05T13:49:13.613Z,30.10
2022-08-05T13:51:46.111Z,29.75
2022-08-05T13:54:16.029Z,29.94
2022-08-05T13:56:51.184Z,29.81
2022-08-05T13:59:24.901Z,29.78
2022-08-05T14:01:57.556Z,30.04
2022-08-05T14:04:49.818Z,30.67
2022-08-05T14:07:26.083Z,30.53
2022-08-05T14:10:08.589Z,30.31
2022-08-05T14:12:36.615Z,29.87
2022-08-05T14:15:05.859Z,29.91
2022-08-05T14:17:54.933Z,29.52
2022-08-05T14:20:29.462Z,29.64
2022-08-05T14:22:57.347Z,29.50
2022-08-05T14:25:28.314Z,29.39
2022-08-05T14:27:58.712Z,28.97
2022-08-05T14:30:28.091Z,29.18
2022-08-05T14:32:56.624Z,29.32
2022-08-05T14:35:50.060Z,29.94
2022-08-05T14:38:31.884Z,30.06
2022-08-05T14:41:06.451Z,30.02
2022-08-05T14:44:02.245Z,29.72
2022-08-05T14:46:28.760Z,29.02
2022-08-05T14:48:58.130Z,29.35
2022-08-05T14:51:30.814Z,29.24
2022-08-05T14:54:26.656Z,28.78
2022-08-05T14:56:47.805Z,27.80
2022-08-05T14:59:15.975Z,27.61
2022-08-05T15:01:48.251Z,27.02
2022-08-05T15:04:17.508Z,26.18
2022-08-05T15:06:49.453Z,26.11
2022-08-05T15:09:51.598Z,26.13
2022-08-05T15:12:09.015Z,26.08
2022-08-05T15:14:42.239Z,26.45
2022-08-05T15:17:46.398Z,26.86
2022-08-05T15:20:06.473Z,26.36
2022-08-05T15:22:37.681Z,26.26
2022-08-05T15:25:11.915Z,26.56
2022-08-05T15:27:42.905Z,26.16
2022-08-05T15:30:19.559Z,26.26
2022-08-05T15:32:47.471Z,26.19
2022-08-05T15:35:15.175Z,26.17
2022-08-05T15:38:32.988Z,26.00
2022-08-05T15:40:59.708Z,26.30
2022-08-05T15:43:21.358Z,26.32
2022-08-05T15:46:00.487Z,25.99
2022-08-05T15:48:29.636Z,25.63
2022-08-05T15:50:57.635Z,25.47
2022-08-05T15:53:26.381Z,25.87
2022-08-05T15:56:03.545Z,25.47
2022-08-05T15:58:36.941Z,25.01
2022-08-05T16:01:17.010Z,25.27
2022-08-05T16:03:48.565Z,25.64
2022-08-05T16:06:20.418Z,24.92
2022-08-05T16:08:50.368Z,25.01
2022-08-05T16:11:20.915Z,25.64
2022-08-05T16:13:48.792Z,25.09
2022-08-05T16:16:21.232Z,25.36
2022-08-05T16:18:53.162Z,25.53
2022-08-05T16:21:59.443Z,25.17
2022-08-05T16:24:12.847Z,25.13
2022-08-05T16:27:00.409Z,24.66
2022-08-05T16:29:37.027Z,24.55
2022-08-05T16:32:06.312Z,24.22
2022-08-05T16:34:34.014Z,24.18
2022-08-05T16:37:01.802Z,23.90
2022-08-05T16:40:04.698Z,24.00
2022-08-05T16:42:36.566Z,23.83
2022-08-05T16:45:39.233Z,23.64
2022-08-05T16:47:53.472Z,23.83
2022-08-05T16:50:25.295Z,23.57
2022-08-05T16:52:53.104Z,23.89
2022-08-05T16:55:24.632Z,23.55
2022-08-05T16:58:01.351Z,23.82
2022-08-05T17:00:34.840Z,23.57
2022-08-05T17:03:03.555Z,23.44
2022-08-05T17:05:31.889Z,23.79
2022-08-05T17:07:59.782Z,23.50
2022-08-05T17:10:30.466Z,23.59
2022-08-05T17:12:59.715Z,23.26
2022-08-05T17:15:29.507Z,23.23
2022-08-05T17:18:16.466Z,23.55
2022-08-05T17:20:46.893Z,23.40
2022-08-05T17:24:02.969Z,23.19
2022-08-05T17:26:02.834Z,23.33
2022-08-05T17:28:31.833Z,23.28
2022-08-05T17:30:59.498Z,23.36
2022-08-05T17:33:38.878Z,23.30
2022-08-05T17:36:33.854Z,23.43
2022-08-05T17:39:03.287Z,23.40
2022-08-05T17:42:19.728Z,23.05
2022-08-05T17:44:26.707Z,23.18
2022-08-05T17:47:00.422Z,23.11
2022-08-05T17:49:28.135Z,23.22
2022-08-05T17:52:16.345Z,23.10
2022-08-05T17:54:44.162Z,23.25
2022-08-05T17:57:12.442Z,23.39
2022-08-05T17:59:47.148Z,23.15
2022-08-05T18:02:31.085Z,23.21
2022-08-05T18:05:02.911Z,23.21
2022-08-05T18:07:41.543Z,23.19
2022-08-05T18:10:11.532Z,23.00
2022-08-05T18:12:42.399Z,23.16
2022-08-05T18:15:11.965Z,23.37
2022-08-05T18:17:59.490Z,23.34
2022-08-05T18:20:29.638Z,23.32
2022-08-05T18:23:00.749Z,23.25
2022-08-05T18:25:39.514Z,23.27
2022-08-05T18:28:12.694Z,23.24
2022-08-05T18:30:50.891Z,23.23
2022-08-05T18:33:23.085Z,23.51
2022-08-05T18:36:04.894Z,23.32
2022-08-05T18:38:35.817Z,23.30
2022-08-05T18:41:57.092Z,23.16
2022-08-05T18:43:51.958Z,23.23
2022-08-05T18:46:20.958Z,23.19
2022-08-05T18:48:51.874Z,23.40
2022-08-05T18:52:05.511Z,23.33
2022-08-05T18:54:26.320Z,23.15
2022-08-05T18:56:57.270Z,22.82
2022-08-05T18:59:42.811Z,22.97
2022-08-05T19:02:27.017Z,23.08
2022-08-05T19:06:05.867Z,23.01
2022-08-05T19:07:52.476Z,22.94
2022-08-05T19:10:28.459Z,23.15
2022-08-05T19:12:56.929Z,23.12
2022-08-05T19:15:57.909Z,23.15
2022-08-05T19:18:22.278Z,23.12
2022-08-05T19:20:52.337Z,23.03
2022-08-05T19:24:04.372Z,23.12
2022-08-05T19:26:09.594Z,22.98
2022-08-05T19:28:42.027Z,22.91
2022-08-05T19:31:12.876Z,22.90
2022-08-05T19:33:48.470Z,22.65
2022-08-05T19:36:25.764Z,22.63
2022-08-05T19:38:54.700Z,22.72
2022-08-05T19:42:06.486Z,22.86
2022-08-05T19:44:13.555Z,22.65
2022-08-05T19:46:43.675Z,22.58
2022-08-05T19:49:17.215Z,22.56
2022-08-05T19:52:05.732Z,22.49
2022-08-05T19:54:34.324Z,22.46
2022-08-05T19:57:06.657Z,22.33
2022-08-05T20:00:00.575Z,22.25
2022-08-05T20:02:31.486Z,21.97
2022-08-05T20:05:00.981Z,22.22
2022-08-05T20:07:46.721Z,22.40
2022-08-05T20:10:19.400Z,22.32
2022-08-05T20:12:50.442Z,22.04
2022-08-05T20:15:23.246Z,21.95
2022-08-05T20:18:10.222Z,21.91
2022-08-05T20:20:57.943Z,21.87
2022-08-05T20:23:40.033Z,21.89
2022-08-05T20:26:17.255Z,21.77
2022-08-05T20:28:48.600Z,21.85
2022-08-05T20:31:16.926Z,21.80
2022-08-05T20:33:45.428Z,21.77
2022-08-05T20:36:16.414Z,21.75
2022-08-05T20:38:54.524Z,21.82
2022-08-05T20:41:44.420Z,21.57
2022-08-05T20:44:18.846Z,21.50
2022-08-05T20:46:57.430Z,21.56
2022-08-05T20:49:26.051Z,21.36
2022-08-05T20:51:57.271Z,21.48
2022-08-05T20:54:42.422Z,21.50
2022-08-05T20:57:14.441Z,21.41
2022-08-05T21:00:10.607Z,21.44
2022-08-05T21:02:30.119Z,21.45
2022-08-05T21:04:58.225Z,21.40
2022-08-05T21:07:50.948Z,21.46
2022-08-05T21:10:19.352Z,21.44
2022-08-05T21:12:57.764Z,21.36
2022-08-05T21:15:35.334Z,21.28
2022-08-05T21:18:04.845Z,21.12
2022-08-05T21:20:34.210Z,21.10
2022-08-05T21:23:03.559Z,21.32
2022-08-05T21:25:34.041Z,21.15
2022-08-05T21:28:02.971Z,21.07
2022-08-05T21:30:31.809Z,21.18
2022-08-05T21:33:01.862Z,21.10
2022-08-05T21:35:55.795Z,21.06
2022-08-05T21:38:19.098Z,21.03
2022-08-05T21:40:46.803Z,20.90
2022-08-05T21:43:24.284Z,20.82
2022-08-05T21:45:57.632Z,20.77
2022-08-05T21:48:28.814Z,20.82
2022-08-05T21:50:57.356Z,20.83
2022-08-05T21:53:27.519Z,20.68
2022-08-05T21:56:05.598Z,20.54
2022-08-05T21:58:42.025Z,20.58
2022-08-05T22:01:10.651Z,20.51
2022-08-05T22:03:52.446Z,20.40
2022-08-05T22:06:23.054Z,20.34
2022-08-05T22:09:14.798Z,20.35
2022-08-05T22:11:47.074Z,20.37
2022-08-05T22:14:35.373Z,20.32
2022-08-05T22:17:05.392Z,20.18
2022-08-05T22:20:00.423Z,20.30
2022-08-05T22:22:26.924Z,20.19
2022-08-05T22:25:20.986Z,20.29
2022-08-05T22:28:09.183Z,20.28
2022-08-05T22:30:56.553Z,20.21
2022-08-05T22:33:58.342Z,20.10
2022-08-05T22:36:14.443Z,20.09
2022-08-05T22:38:43.076Z,20.04
2022-08-05T22:41:12.306Z,20.06
2022-08-05T22:43:42.793Z,20.16
2022-08-05T22:46:13.435Z,20.20
2022-08-05T22:48:41.812Z,20.08
2022-08-05T22:51:15.868Z,20.06
2022-08-05T22:53:50.822Z,20.12
2022-08-05T22:56:30.570Z,20.05
2022-08-05T22:59:00.032Z,20.08
2022-08-05T23:02:04.199Z,20.03
2022-08-05T23:04:18.703Z,19.97
2022-08-05T23:06:47.892Z,19.86
2022-08-05T23:09:27.612Z,19.96
2022-08-05T23:12:05.407Z,19.87
2022-08-05T23:14:33.659Z,19.77
2022-08-05T23:17:23.976Z,19.74
2022-08-05T23:19:56.374Z,19.78
2022-08-05T23:22:27.581Z,19.85
2022-08-05T23:24:56.327Z,19.80
2022-08-05T23:27:31.381Z,19.70
2022-08-05T23:30:11.323Z,19.75
2022-08-05T23:32:40.707Z,19.70
2022-08-05T23:35:13.221Z,19.76
2022-08-05T23:37:41.407Z,19.75
2022-08-05T23:40:11.825Z,19.66
2022-08-05T23:42:40.947Z,19.54
2022-08-05T23:45:15.859Z,19.61
2022-08-05T23:47:47.990Z,19.74
2022-08-05T23:50:17.018Z,19.51
2022-08-05T23:52:50.499Z,19.57
2022-08-05T23:55:19.313Z,19.43
2022-08-05T23:57:49.014Z,19.75
